sensor_id;sensor_type;location;lat;lon;timestamp;temperature;humidity
11320;DHT22;5715;48.234;14.320;2022-08-30T00:00:31;16.80;99.90
11320;DHT22;5715;48.234;14.320;2022-08-30T00:03:40;16.70;99.90
11320;DHT22;5715;48.234;14.320;2022-08-30T00:06:30;16.60;99.90
11320;DHT22;5715;48.234;14.320;2022-08-30T00:09:17;16.60;99.90
11320;DHT22;5715;48.234;14.320;2022-08-30T00:12:05;16.60;99.90
11320;DHT22;5715;48.234;14.320;2022-08-30T00:14:53;16.60;99.90
11320;DHT22;5715;48.234;14.320;2022-08-30T00:17:41;16.60;99.90
11320;DHT22;5715;48.234;14.320;2022-08-30T00:20:31;16.60;99.90
11320;DHT22;5715;48.234;14.320;2022-08-30T00:23:21;16.50;99.90
11320;DHT22;5715;48.234;14.320;2022-08-30T00:26:09;16.40;99.90
11320;DHT22;5715;48.234;14.320;2022-08-30T00:28:56;16.40;99.90
11320;DHT22;5715;48.234;14.320;2022-08-30T00:31:45;16.30;99.90
11320;DHT22;5715;48.234;14.320;2022-08-30T00:34:33;16.30;99.90
11320;DHT22;5715;48.234;14.320;2022-08-30T00:37:21;16.20;99.90
11320;DHT22;5715;48.234;14.320;2022-08-30T00:40:10;16.10;99.90
11320;DHT22;5715;48.234;14.320;2022-08-30T00:43:05;16.10;99.90
11320;DHT22;5715;48.234;14.320;2022-08-30T00:45:59;16.10;99.90
11320;DHT22;5715;48.234;14.320;2022-08-30T00:48:51;16.20;99.90
11320;DHT22;5715;48.234;14.320;2022-08-30T00:51:40;16.10;99.90
11320;DHT22;5715;48.234;14.320;2022-08-30T00:54:29;16.10;99.90
11320;DHT22;5715;48.234;14.320;2022-08-30T00:57:19;16.10;99.90
11320;DHT22;5715;48.234;14.320;2022-08-30T01:00:07;16.10;99.90
11320;DHT22;5715;48.234;14.320;2022-08-30T01:02:56;16.00;99.90
11320;DHT22;5715;48.234;14.320;2022-08-30T01:05:45;16.00;99.90
11320;DHT22;5715;48.234;14.320;2022-08-30T01:08:36;15.90;99.90
11320;DHT22;5715;48.234;14.320;2022-08-30T01:11:25;15.80;99.90
11320;DHT22;5715;48.234;14.320;2022-08-30T01:14:13;15.80;99.90
11320;DHT22;5715;48.234;14.320;2022-08-30T01:17:04;15.70;99.90
11320;DHT22;5715;48.234;14.320;2022-08-30T01:19:59;15.70;99.90
11320;DHT22;5715;48.234;14.320;2022-08-30T01:25:39;15.70;99.90
11320;DHT22;5715;48.234;14.320;2022-08-30T01:28:30;15.70;99.90
11320;DHT22;5715;48.234;14.320;2022-08-30T01:31:18;15.70;99.90
11320;DHT22;5715;48.234;14.320;2022-08-30T01:34:07;15.70;99.90
11320;DHT22;5715;48.234;14.320;2022-08-30T01:36:54;15.70;99.90
11320;DHT22;5715;48.234;14.320;2022-08-30T01:39:45;15.70;99.90
11320;DHT22;5715;48.234;14.320;2022-08-30T01:42:33;15.60;99.90
11320;DHT22;5715;48.234;14.320;2022-08-30T01:45:20;15.60;99.90
11320;DHT22;5715;48.234;14.320;2022-08-30T01:48:09;15.50;99.90
11320;DHT22;5715;48.234;14.320;2022-08-30T01:50:59;15.50;99.90
11320;DHT22;5715;48.234;14.320;2022-08-30T01:53:46;15.50;99.90
11320;DHT22;5715;48.234;14.320;2022-08-30T01:56:35;15.40;99.90
11320;DHT22;5715;48.234;14.320;2022-08-30T01:59:23;15.40;99.90
11320;DHT22;5715;48.234;14.320;2022-08-30T02:02:11;15.40;99.90
11320;DHT22;5715;48.234;14.320;2022-08-30T02:04:58;15.30;99.90
11320;DHT22;5715;48.234;14.320;2022-08-30T02:07:46;15.30;99.90
11320;DHT22;5715;48.234;14.320;2022-08-30T02:10:33;15.30;99.90
11320;DHT22;5715;48.234;14.320;2022-08-30T02:13:21;15.20;99.90
11320;DHT22;5715;48.234;14.320;2022-08-30T02:16:13;15.10;99.90
11320;DHT22;5715;48.234;14.320;2022-08-30T02:19:02;15.10;99.90
11320;DHT22;5715;48.234;14.320;2022-08-30T02:21:50;15.10;99.90
11320;DHT22;5715;48.234;14.320;2022-08-30T02:24:38;15.10;99.90
11320;DHT22;5715;48.234;14.320;2022-08-30T02:27:26;15.10;99.90
11320;DHT22;5715;48.234;14.320;2022-08-30T02:30:14;15.10;99.90
11320;DHT22;5715;48.234;14.320;2022-08-30T02:33:02;15.10;99.90
11320;DHT22;5715;48.234;14.320;2022-08-30T02:35:50;15.10;99.90
11320;DHT22;5715;48.234;14.320;2022-08-30T02:38:38;15.10;99.90
11320;DHT22;5715;48.234;14.320;2022-08-30T02:41:25;15.10;99.90
11320;DHT22;5715;48.234;14.320;2022-08-30T02:44:13;15.10;99.90
11320;DHT22;5715;48.234;14.320;2022-08-30T02:47:01;15.10;99.90
11320;DHT22;5715;48.234;14.320;2022-08-30T02:49:50;15.00;99.90
11320;DHT22;5715;48.234;14.320;2022-08-30T02:52:38;15.00;99.90
11320;DHT22;5715;48.234;14.320;2022-08-30T02:55:26;15.00;99.90
11320;DHT22;5715;48.234;14.320;2022-08-30T02:58:13;15.10;99.90
11320;DHT22;5715;48.234;14.320;2022-08-30T03:01:02;15.10;99.90
11320;DHT22;5715;48.234;14.320;2022-08-30T03:03:52;15.20;99.90
11320;DHT22;5715;48.234;14.320;2022-08-30T03:06:39;15.10;99.90
11320;DHT22;5715;48.234;14.320;2022-08-30T03:09:27;15.20;99.90
11320;DHT22;5715;48.234;14.320;2022-08-30T03:12:15;15.20;99.90
11320;DHT22;5715;48.234;14.320;2022-08-30T03:15:05;15.20;99.90
11320;DHT22;5715;48.234;14.320;2022-08-30T03:17:54;15.10;99.90
11320;DHT22;5715;48.234;14.320;2022-08-30T03:20:42;15.00;99.90
11320;DHT22;5715;48.234;14.320;2022-08-30T03:23:41;15.00;99.90
11320;DHT22;5715;48.234;14.320;2022-08-30T03:26:29;15.00;99.90
11320;DHT22;5715;48.234;14.320;2022-08-30T03:29:17;14.90;99.90
11320;DHT22;5715;48.234;14.320;2022-08-30T03:32:04;14.80;99.90
11320;DHT22;5715;48.234;14.320;2022-08-30T03:34:52;14.80;99.90
11320;DHT22;5715;48.234;14.320;2022-08-30T03:37:40;14.80;99.90
11320;DHT22;5715;48.234;14.320;2022-08-30T03:40:27;14.70;99.90
11320;DHT22;5715;48.234;14.320;2022-08-30T03:43:16;14.70;99.90
11320;DHT22;5715;48.234;14.320;2022-08-30T03:46:04;14.70;99.90
11320;DHT22;5715;48.234;14.320;2022-08-30T03:48:53;14.70;99.90
11320;DHT22;5715;48.234;14.320;2022-08-30T03:51:43;14.70;99.90
11320;DHT22;5715;48.234;14.320;2022-08-30T03:54:31;14.60;99.90
11320;DHT22;5715;48.234;14.320;2022-08-30T03:57:18;14.60;99.90
11320;DHT22;5715;48.234;14.320;2022-08-30T04:00:12;14.60;99.90
11320;DHT22;5715;48.234;14.320;2022-08-30T04:03:01;14.60;99.90
11320;DHT22;5715;48.234;14.320;2022-08-30T04:05:49;14.60;99.90
11320;DHT22;5715;48.234;14.320;2022-08-30T04:08:37;14.70;99.90
11320;DHT22;5715;48.234;14.320;2022-08-30T04:11:26;14.70;99.90
11320;DHT22;5715;48.234;14.320;2022-08-30T04:14:14;14.70;99.90
11320;DHT22;5715;48.234;14.320;2022-08-30T04:17:01;14.80;99.90
11320;DHT22;5715;48.234;14.320;2022-08-30T04:19:49;14.80;99.90
11320;DHT22;5715;48.234;14.320;2022-08-30T04:22:37;14.80;99.90
11320;DHT22;5715;48.234;14.320;2022-08-30T04:25:24;14.80;99.90
11320;DHT22;5715;48.234;14.320;2022-08-30T04:28:12;14.70;99.90
11320;DHT22;5715;48.234;14.320;2022-08-30T04:31:06;14.70;99.90
11320;DHT22;5715;48.234;14.320;2022-08-30T04:34:01;14.70;99.90
11320;DHT22;5715;48.234;14.320;2022-08-30T04:36:48;14.70;99.90
11320;DHT22;5715;48.234;14.320;2022-08-30T04:39:36;14.70;99.90
11320;DHT22;5715;48.234;14.320;2022-08-30T04:42:24;14.70;99.90
11320;DHT22;5715;48.234;14.320;2022-08-30T04:45:14;14.80;99.90
11320;DHT22;5715;48.234;14.320;2022-08-30T04:48:02;14.80;99.90
11320;DHT22;5715;48.234;14.320;2022-08-30T04:50:50;14.90;99.90
11320;DHT22;5715;48.234;14.320;2022-08-30T04:53:38;14.90;99.90
11320;DHT22;5715;48.234;14.320;2022-08-30T04:56:26;15.00;99.90
11320;DHT22;5715;48.234;14.320;2022-08-30T04:59:14;15.00;99.90
11320;DHT22;5715;48.234;14.320;2022-08-30T05:02:01;15.10;99.90
11320;DHT22;5715;48.234;14.320;2022-08-30T05:04:49;15.30;99.90
11320;DHT22;5715;48.234;14.320;2022-08-30T05:07:56;15.40;99.90
11320;DHT22;5715;48.234;14.320;2022-08-30T05:10:50;15.40;99.90
11320;DHT22;5715;48.234;14.320;2022-08-30T05:13:38;15.60;99.90
11320;DHT22;5715;48.234;14.320;2022-08-30T05:16:26;15.90;99.90
11320;DHT22;5715;48.234;14.320;2022-08-30T05:19:14;16.30;99.90
11320;DHT22;5715;48.234;14.320;2022-08-30T05:22:01;16.70;99.90
11320;DHT22;5715;48.234;14.320;2022-08-30T05:24:49;17.10;99.90
11320;DHT22;5715;48.234;14.320;2022-08-30T05:27:37;17.60;99.90
11320;DHT22;5715;48.234;14.320;2022-08-30T05:30:26;18.00;99.90
11320;DHT22;5715;48.234;14.320;2022-08-30T05:33:14;18.30;99.90
11320;DHT22;5715;48.234;14.320;2022-08-30T05:36:05;18.70;99.90
11320;DHT22;5715;48.234;14.320;2022-08-30T05:38:54;18.90;99.90
11320;DHT22;5715;48.234;14.320;2022-08-30T05:41:43;19.20;99.90
11320;DHT22;5715;48.234;14.320;2022-08-30T05:44:30;19.30;99.90
11320;DHT22;5715;48.234;14.320;2022-08-30T05:47:18;19.50;99.90
11320;DHT22;5715;48.234;14.320;2022-08-30T05:50:07;19.60;99.90
11320;DHT22;5715;48.234;14.320;2022-08-30T05:52:55;19.80;99.90
11320;DHT22;5715;48.234;14.320;2022-08-30T05:55:42;19.50;99.90
11320;DHT22;5715;48.234;14.320;2022-08-30T05:58:30;19.30;99.90
11320;DHT22;5715;48.234;14.320;2022-08-30T06:01:21;19.10;99.90
11320;DHT22;5715;48.234;14.320;2022-08-30T06:04:12;18.80;99.90
11320;DHT22;5715;48.234;14.320;2022-08-30T06:07:00;18.80;99.90
11320;DHT22;5715;48.234;14.320;2022-08-30T06:09:47;18.70;99.90
11320;DHT22;5715;48.234;14.320;2022-08-30T06:12:35;18.70;99.90
11320;DHT22;5715;48.234;14.320;2022-08-30T06:15:22;18.60;99.90
11320;DHT22;5715;48.234;14.320;2022-08-30T06:18:11;18.60;99.90
11320;DHT22;5715;48.234;14.320;2022-08-30T06:20:59;18.60;99.90
11320;DHT22;5715;48.234;14.320;2022-08-30T06:23:47;18.50;99.90
11320;DHT22;5715;48.234;14.320;2022-08-30T06:26:41;18.40;99.90
11320;DHT22;5715;48.234;14.320;2022-08-30T06:29:30;18.50;99.90
11320;DHT22;5715;48.234;14.320;2022-08-30T06:32:18;18.40;99.90
11320;DHT22;5715;48.234;14.320;2022-08-30T06:35:06;18.30;99.90
11320;DHT22;5715;48.234;14.320;2022-08-30T06:37:55;18.50;99.90
11320;DHT22;5715;48.234;14.320;2022-08-30T06:40:43;18.50;99.90
11320;DHT22;5715;48.234;14.320;2022-08-30T06:43:30;18.70;99.90
11320;DHT22;5715;48.234;14.320;2022-08-30T06:46:27;18.80;99.90
11320;DHT22;5715;48.234;14.320;2022-08-30T06:49:19;19.00;99.90
11320;DHT22;5715;48.234;14.320;2022-08-30T06:52:07;19.10;99.90
11320;DHT22;5715;48.234;14.320;2022-08-30T06:54:56;19.10;99.90
11320;DHT22;5715;48.234;14.320;2022-08-30T06:57:45;19.10;99.90
11320;DHT22;5715;48.234;14.320;2022-08-30T07:00:33;19.30;99.90
11320;DHT22;5715;48.234;14.320;2022-08-30T07:03:23;19.40;99.90
11320;DHT22;5715;48.234;14.320;2022-08-30T07:06:13;19.80;99.90
11320;DHT22;5715;48.234;14.320;2022-08-30T07:09:01;20.10;99.90
11320;DHT22;5715;48.234;14.320;2022-08-30T07:11:50;20.30;99.90
11320;DHT22;5715;48.234;14.320;2022-08-30T07:14:39;20.50;99.90
11320;DHT22;5715;48.234;14.320;2022-08-30T07:17:28;20.60;99.90
11320;DHT22;5715;48.234;14.320;2022-08-30T07:20:36;20.70;99.90
11320;DHT22;5715;48.234;14.320;2022-08-30T07:23:26;20.80;99.90
11320;DHT22;5715;48.234;14.320;2022-08-30T07:26:16;21.00;99.90
11320;DHT22;5715;48.234;14.320;2022-08-30T07:29:07;21.20;99.90
11320;DHT22;5715;48.234;14.320;2022-08-30T07:31:55;21.40;99.90
11320;DHT22;5715;48.234;14.320;2022-08-30T07:34:43;21.50;99.90
11320;DHT22;5715;48.234;14.320;2022-08-30T07:37:30;21.50;99.90
11320;DHT22;5715;48.234;14.320;2022-08-30T07:40:18;21.70;99.90
11320;DHT22;5715;48.234;14.320;2022-08-30T07:43:06;21.70;99.90
11320;DHT22;5715;48.234;14.320;2022-08-30T07:45:53;21.90;99.90
11320;DHT22;5715;48.234;14.320;2022-08-30T07:48:44;22.00;99.90
11320;DHT22;5715;48.234;14.320;2022-08-30T07:51:32;22.10;99.90
11320;DHT22;5715;48.234;14.320;2022-08-30T07:54:20;22.10;99.90
11320;DHT22;5715;48.234;14.320;2022-08-30T07:57:08;22.10;99.90
11320;DHT22;5715;48.234;14.320;2022-08-30T07:59:55;22.20;99.90
11320;DHT22;5715;48.234;14.320;2022-08-30T08:02:42;22.30;99.90
11320;DHT22;5715;48.234;14.320;2022-08-30T08:05:36;22.40;99.90
11320;DHT22;5715;48.234;14.320;2022-08-30T08:08:25;22.40;99.90
11320;DHT22;5715;48.234;14.320;2022-08-30T08:11:19;22.30;99.90
11320;DHT22;5715;48.234;14.320;2022-08-30T08:14:08;22.30;99.90
11320;DHT22;5715;48.234;14.320;2022-08-30T08:16:56;22.30;99.90
11320;DHT22;5715;48.234;14.320;2022-08-30T08:19:44;22.40;99.90
11320;DHT22;5715;48.234;14.320;2022-08-30T08:22:32;22.40;99.90
11320;DHT22;5715;48.234;14.320;2022-08-30T08:25:25;22.30;99.90
11320;DHT22;5715;48.234;14.320;2022-08-30T08:28:13;22.40;99.90
11320;DHT22;5715;48.234;14.320;2022-08-30T08:31:01;22.50;99.90
11320;DHT22;5715;48.234;14.320;2022-08-30T08:33:49;22.50;99.90
11320;DHT22;5715;48.234;14.320;2022-08-30T08:36:37;22.60;99.90
11320;DHT22;5715;48.234;14.320;2022-08-30T08:39:26;22.90;99.90
11320;DHT22;5715;48.234;14.320;2022-08-30T08:42:51;22.90;99.90
11320;DHT22;5715;48.234;14.320;2022-08-30T08:48:54;23.30;99.90
11320;DHT22;5715;48.234;14.320;2022-08-30T08:51:47;23.40;99.90
11320;DHT22;5715;48.234;14.320;2022-08-30T08:55:06;23.40;99.90
11320;DHT22;5715;48.234;14.320;2022-08-30T08:57:57;23.50;99.90
11320;DHT22;5715;48.234;14.320;2022-08-30T09:00:45;23.70;99.90
11320;DHT22;5715;48.234;14.320;2022-08-30T09:03:32;23.80;99.90
11320;DHT22;5715;48.234;14.320;2022-08-30T09:09:47;23.80;99.90
11320;DHT22;5715;48.234;14.320;2022-08-30T09:12:35;24.00;99.90
11320;DHT22;5715;48.234;14.320;2022-08-30T09:15:30;24.10;99.90
11320;DHT22;5715;48.234;14.320;2022-08-30T09:18:42;24.00;99.90
11320;DHT22;5715;48.234;14.320;2022-08-30T09:21:36;24.10;99.90
11320;DHT22;5715;48.234;14.320;2022-08-30T09:24:23;24.10;99.90
11320;DHT22;5715;48.234;14.320;2022-08-30T09:27:45;24.20;99.90
11320;DHT22;5715;48.234;14.320;2022-08-30T09:30:35;24.20;99.90
11320;DHT22;5715;48.234;14.320;2022-08-30T09:33:23;24.30;99.90
11320;DHT22;5715;48.234;14.320;2022-08-30T09:36:28;24.20;99.90
11320;DHT22;5715;48.234;14.320;2022-08-30T09:39:36;24.30;99.90
11320;DHT22;5715;48.234;14.320;2022-08-30T09:42:27;24.50;99.90
11320;DHT22;5715;48.234;14.320;2022-08-30T09:45:28;24.50;99.90
11320;DHT22;5715;48.234;14.320;2022-08-30T09:48:40;24.50;99.90
11320;DHT22;5715;48.234;14.320;2022-08-30T09:54:37;24.80;99.90
11320;DHT22;5715;48.234;14.320;2022-08-30T09:57:56;24.90;99.90
11320;DHT22;5715;48.234;14.320;2022-08-30T10:01:10;25.10;99.90
11320;DHT22;5715;48.234;14.320;2022-08-30T10:04:24;25.10;99.90
11320;DHT22;5715;48.234;14.320;2022-08-30T10:07:29;25.20;99.90
11320;DHT22;5715;48.234;14.320;2022-08-30T10:10:24;25.30;99.90
11320;DHT22;5715;48.234;14.320;2022-08-30T10:13:37;25.30;99.90
11320;DHT22;5715;48.234;14.320;2022-08-30T10:16:57;25.30;99.90
11320;DHT22;5715;48.234;14.320;2022-08-30T10:20:32;25.40;99.90
11320;DHT22;5715;48.234;14.320;2022-08-30T10:23:27;25.60;99.90
11320;DHT22;5715;48.234;14.320;2022-08-30T10:26:26;25.80;99.90
11320;DHT22;5715;48.234;14.320;2022-08-30T10:29:28;25.90;99.90
11320;DHT22;5715;48.234;14.320;2022-08-30T10:32:33;26.00;99.90
11320;DHT22;5715;48.234;14.320;2022-08-30T10:35:29;25.90;99.90
11320;DHT22;5715;48.234;14.320;2022-08-30T10:38:28;25.90;99.90
11320;DHT22;5715;48.234;14.320;2022-08-30T10:41:40;26.00;99.90
11320;DHT22;5715;48.234;14.320;2022-08-30T10:44:45;26.10;99.90
11320;DHT22;5715;48.234;14.320;2022-08-30T10:55:20;26.30;99.90
11320;DHT22;5715;48.234;14.320;2022-08-30T10:58:08;26.40;99.90
11320;DHT22;5715;48.234;14.320;2022-08-30T11:11:36;26.80;99.90
11320;DHT22;5715;48.234;14.320;2022-08-30T11:14:04;26.90;99.90
11320;DHT22;5715;48.234;14.320;2022-08-30T11:16:59;27.00;99.90
11320;DHT22;5715;48.234;14.320;2022-08-30T11:19:48;27.10;99.90
11320;DHT22;5715;48.234;14.320;2022-08-30T11:22:37;27.20;99.90
11320;DHT22;5715;48.234;14.320;2022-08-30T11:26:07;27.30;99.90
11320;DHT22;5715;48.234;14.320;2022-08-30T11:29:07;27.40;99.90
11320;DHT22;5715;48.234;14.320;2022-08-30T11:32:17;27.20;99.90
11320;DHT22;5715;48.234;14.320;2022-08-30T11:35:51;27.10;99.90
11320;DHT22;5715;48.234;14.320;2022-08-30T11:42:12;27.00;99.90
11320;DHT22;5715;48.234;14.320;2022-08-30T12:01:56;27.40;99.90
11320;DHT22;5715;48.234;14.320;2022-08-30T12:04:46;27.50;99.90
11320;DHT22;5715;48.234;14.320;2022-08-30T12:07:55;27.50;99.90
11320;DHT22;5715;48.234;14.320;2022-08-30T12:13:58;27.50;99.90
11320;DHT22;5715;48.234;14.320;2022-08-30T12:16:48;27.60;99.90
11320;DHT22;5715;48.234;14.320;2022-08-30T12:19:57;27.80;99.90
11320;DHT22;5715;48.234;14.320;2022-08-30T12:22:49;27.90;99.90
11320;DHT22;5715;48.234;14.320;2022-08-30T12:25:38;28.00;99.90
11320;DHT22;5715;48.234;14.320;2022-08-30T12:28:26;28.10;99.90
11320;DHT22;5715;48.234;14.320;2022-08-30T12:31:20;28.10;99.90
11320;DHT22;5715;48.234;14.320;2022-08-30T12:35:01;28.00;99.90
11320;DHT22;5715;48.234;14.320;2022-08-30T12:37:37;28.00;99.90
11320;DHT22;5715;48.234;14.320;2022-08-30T12:40:29;28.20;99.90
11320;DHT22;5715;48.234;14.320;2022-08-30T12:43:24;28.10;99.90
11320;DHT22;5715;48.234;14.320;2022-08-30T12:46:28;28.10;99.90
11320;DHT22;5715;48.234;14.320;2022-08-30T12:49:18;28.20;99.90
11320;DHT22;5715;48.234;14.320;2022-08-30T12:55:21;28.20;99.90
11320;DHT22;5715;48.234;14.320;2022-08-30T12:58:13;28.20;99.90
11320;DHT22;5715;48.234;14.320;2022-08-30T13:01:23;28.20;99.90
11320;DHT22;5715;48.234;14.320;2022-08-30T13:04:26;28.30;99.90
11320;DHT22;5715;48.234;14.320;2022-08-30T13:07:34;28.40;99.90
11320;DHT22;5715;48.234;14.320;2022-08-30T13:10:22;28.40;99.90
11320;DHT22;5715;48.234;14.320;2022-08-30T13:13:10;28.40;99.90
11320;DHT22;5715;48.234;14.320;2022-08-30T13:19:32;28.30;99.90
11320;DHT22;5715;48.234;14.320;2022-08-30T13:22:31;28.30;99.90
11320;DHT22;5715;48.234;14.320;2022-08-30T13:25:21;28.40;99.90
11320;DHT22;5715;48.234;14.320;2022-08-30T13:28:09;28.50;99.90
11320;DHT22;5715;48.234;14.320;2022-08-30T13:30:57;28.50;99.90
11320;DHT22;5715;48.234;14.320;2022-08-30T13:33:45;28.40;99.90
11320;DHT22;5715;48.234;14.320;2022-08-30T13:36:45;28.50;99.90
11320;DHT22;5715;48.234;14.320;2022-08-30T13:39:35;28.50;99.90
11320;DHT22;5715;48.234;14.320;2022-08-30T13:42:23;28.40;99.90
11320;DHT22;5715;48.234;14.320;2022-08-30T13:45:19;28.30;99.90
11320;DHT22;5715;48.234;14.320;2022-08-30T13:48:27;28.40;99.90
11320;DHT22;5715;48.234;14.320;2022-08-30T13:51:15;28.50;99.90
11320;DHT22;5715;48.234;14.320;2022-08-30T13:54:05;28.30;99.90
11320;DHT22;5715;48.234;14.320;2022-08-30T13:56:54;28.20;99.90
11320;DHT22;5715;48.234;14.320;2022-08-30T13:59:42;28.20;99.90
11320;DHT22;5715;48.234;14.320;2022-08-30T14:02:37;28.10;99.90
11320;DHT22;5715;48.234;14.320;2022-08-30T14:05:36;28.10;99.90
11320;DHT22;5715;48.234;14.320;2022-08-30T14:08:45;28.20;99.90
11320;DHT22;5715;48.234;14.320;2022-08-30T14:11:36;28.30;99.90
11320;DHT22;5715;48.234;14.320;2022-08-30T14:14:24;28.30;99.90
11320;DHT22;5715;48.234;14.320;2022-08-30T14:17:28;28.40;99.90
11320;DHT22;5715;48.234;14.320;2022-08-30T14:20:19;28.50;99.90
11320;DHT22;5715;48.234;14.320;2022-08-30T14:23:06;28.50;99.90
11320;DHT22;5715;48.234;14.320;2022-08-30T14:25:57;28.50;99.90
11320;DHT22;5715;48.234;14.320;2022-08-30T14:28:46;28.50;99.90
11320;DHT22;5715;48.234;14.320;2022-08-30T14:31:39;28.40;99.90
11320;DHT22;5715;48.234;14.320;2022-08-30T14:34:27;28.40;99.90
11320;DHT22;5715;48.234;14.320;2022-08-30T14:37:15;28.40;99.90
11320;DHT22;5715;48.234;14.320;2022-08-30T14:40:06;28.20;99.90
11320;DHT22;5715;48.234;14.320;2022-08-30T14:42:54;28.10;99.90
11320;DHT22;5715;48.234;14.320;2022-08-30T14:45:41;28.00;99.90
11320;DHT22;5715;48.234;14.320;2022-08-30T14:48:29;28.00;99.90
11320;DHT22;5715;48.234;14.320;2022-08-30T14:51:19;27.90;99.90
11320;DHT22;5715;48.234;14.320;2022-08-30T14:54:09;27.90;99.90
11320;DHT22;5715;48.234;14.320;2022-08-30T14:56:57;27.90;99.90
11320;DHT22;5715;48.234;14.320;2022-08-30T14:59:45;27.90;99.90
11320;DHT22;5715;48.234;14.320;2022-08-30T15:02:33;28.10;99.10
11320;DHT22;5715;48.234;14.320;2022-08-30T15:05:20;28.10;99.50
11320;DHT22;5715;48.234;14.320;2022-08-30T15:08:10;28.10;99.00
11320;DHT22;5715;48.234;14.320;2022-08-30T15:10:58;28.10;99.50
11320;DHT22;5715;48.234;14.320;2022-08-30T15:13:48;28.00;99.90
11320;DHT22;5715;48.234;14.320;2022-08-30T15:16:39;28.00;99.90
11320;DHT22;5715;48.234;14.320;2022-08-30T15:19:27;28.00;99.90
11320;DHT22;5715;48.234;14.320;2022-08-30T15:22:16;28.00;99.90
11320;DHT22;5715;48.234;14.320;2022-08-30T15:25:05;28.00;99.60
11320;DHT22;5715;48.234;14.320;2022-08-30T15:27:52;28.00;99.10
11320;DHT22;5715;48.234;14.320;2022-08-30T15:30:41;28.00;99.30
11320;DHT22;5715;48.234;14.320;2022-08-30T15:33:30;27.90;99.80
11320;DHT22;5715;48.234;14.320;2022-08-30T15:36:17;27.80;99.90
11320;DHT22;5715;48.234;14.320;2022-08-30T15:39:06;27.80;99.90
11320;DHT22;5715;48.234;14.320;2022-08-30T15:41:55;27.70;99.50
11320;DHT22;5715;48.234;14.320;2022-08-30T15:44:54;27.80;99.60
11320;DHT22;5715;48.234;14.320;2022-08-30T15:47:41;27.70;99.90
11320;DHT22;5715;48.234;14.320;2022-08-30T15:50:30;27.70;99.90
11320;DHT22;5715;48.234;14.320;2022-08-30T15:53:18;27.70;99.90
11320;DHT22;5715;48.234;14.320;2022-08-30T15:56:06;27.70;99.50
11320;DHT22;5715;48.234;14.320;2022-08-30T15:58:53;27.70;99.90
11320;DHT22;5715;48.234;14.320;2022-08-30T16:01:42;27.70;99.90
11320;DHT22;5715;48.234;14.320;2022-08-30T16:04:30;27.70;98.70
11320;DHT22;5715;48.234;14.320;2022-08-30T16:07:18;27.60;99.90
11320;DHT22;5715;48.234;14.320;2022-08-30T16:10:06;27.40;99.90
11320;DHT22;5715;48.234;14.320;2022-08-30T16:12:55;27.30;99.90
11320;DHT22;5715;48.234;14.320;2022-08-30T16:15:46;27.20;99.90
11320;DHT22;5715;48.234;14.320;2022-08-30T16:18:35;27.10;99.90
11320;DHT22;5715;48.234;14.320;2022-08-30T16:21:26;27.00;99.90
11320;DHT22;5715;48.234;14.320;2022-08-30T16:24:15;26.90;99.90
11320;DHT22;5715;48.234;14.320;2022-08-30T16:27:08;26.90;99.90
11320;DHT22;5715;48.234;14.320;2022-08-30T16:29:57;26.80;99.90
11320;DHT22;5715;48.234;14.320;2022-08-30T16:32:44;26.60;99.90
11320;DHT22;5715;48.234;14.320;2022-08-30T16:35:33;26.50;99.90
11320;DHT22;5715;48.234;14.320;2022-08-30T16:38:21;26.30;99.90
11320;DHT22;5715;48.234;14.320;2022-08-30T16:41:13;26.00;99.90
11320;DHT22;5715;48.234;14.320;2022-08-30T16:44:08;25.90;99.90
11320;DHT22;5715;48.234;14.320;2022-08-30T16:46:57;25.80;99.90
11320;DHT22;5715;48.234;14.320;2022-08-30T16:49:45;25.60;99.90
11320;DHT22;5715;48.234;14.320;2022-08-30T16:52:32;25.60;99.90
11320;DHT22;5715;48.234;14.320;2022-08-30T16:55:20;25.50;99.90
11320;DHT22;5715;48.234;14.320;2022-08-30T16:58:09;25.50;99.90
11320;DHT22;5715;48.234;14.320;2022-08-30T17:01:02;25.40;99.90
11320;DHT22;5715;48.234;14.320;2022-08-30T17:03:50;25.30;99.90
11320;DHT22;5715;48.234;14.320;2022-08-30T17:06:39;25.20;99.90
11320;DHT22;5715;48.234;14.320;2022-08-30T17:09:26;25.00;99.90
11320;DHT22;5715;48.234;14.320;2022-08-30T17:12:14;24.90;99.90
11320;DHT22;5715;48.234;14.320;2022-08-30T17:15:03;24.80;99.90
11320;DHT22;5715;48.234;14.320;2022-08-30T17:17:52;24.60;99.90
11320;DHT22;5715;48.234;14.320;2022-08-30T17:20:41;24.60;99.90
11320;DHT22;5715;48.234;14.320;2022-08-30T17:23:30;24.60;99.90
11320;DHT22;5715;48.234;14.320;2022-08-30T17:26:17;24.60;99.90
11320;DHT22;5715;48.234;14.320;2022-08-30T17:29:06;24.50;99.90
11320;DHT22;5715;48.234;14.320;2022-08-30T17:31:54;24.40;99.90
11320;DHT22;5715;48.234;14.320;2022-08-30T17:34:43;24.30;99.90
11320;DHT22;5715;48.234;14.320;2022-08-30T17:37:31;24.10;99.90
11320;DHT22;5715;48.234;14.320;2022-08-30T17:40:19;23.90;99.90
11320;DHT22;5715;48.234;14.320;2022-08-30T17:43:07;23.70;99.90
11320;DHT22;5715;48.234;14.320;2022-08-30T17:46:12;23.50;99.90
11320;DHT22;5715;48.234;14.320;2022-08-30T17:49:05;23.40;99.90
11320;DHT22;5715;48.234;14.320;2022-08-30T17:51:56;23.30;99.90
11320;DHT22;5715;48.234;14.320;2022-08-30T17:54:45;23.20;99.90
11320;DHT22;5715;48.234;14.320;2022-08-30T17:57:33;23.10;99.90
11320;DHT22;5715;48.234;14.320;2022-08-30T18:00:22;23.00;99.90
11320;DHT22;5715;48.234;14.320;2022-08-30T18:03:10;23.00;99.90
11320;DHT22;5715;48.234;14.320;2022-08-30T18:06:01;22.90;99.90
11320;DHT22;5715;48.234;14.320;2022-08-30T18:08:49;22.70;99.90
11320;DHT22;5715;48.234;14.320;2022-08-30T18:11:38;22.50;99.90
11320;DHT22;5715;48.234;14.320;2022-08-30T18:14:27;22.40;99.90
11320;DHT22;5715;48.234;14.320;2022-08-30T18:17:15;22.30;99.90
11320;DHT22;5715;48.234;14.320;2022-08-30T18:20:03;22.20;99.90
11320;DHT22;5715;48.234;14.320;2022-08-30T18:22:53;22.10;99.90
11320;DHT22;5715;48.234;14.320;2022-08-30T18:25:41;22.00;99.90
11320;DHT22;5715;48.234;14.320;2022-08-30T18:28:29;22.00;99.90
11320;DHT22;5715;48.234;14.320;2022-08-30T18:31:19;22.00;99.90
11320;DHT22;5715;48.234;14.320;2022-08-30T18:34:07;22.10;99.90
11320;DHT22;5715;48.234;14.320;2022-08-30T18:36:59;22.00;99.90
11320;DHT22;5715;48.234;14.320;2022-08-30T18:39:47;22.10;99.90
11320;DHT22;5715;48.234;14.320;2022-08-30T18:42:36;22.10;99.90
11320;DHT22;5715;48.234;14.320;2022-08-30T18:45:24;22.10;99.90
11320;DHT22;5715;48.234;14.320;2022-08-30T18:48:12;22.10;99.90
11320;DHT22;5715;48.234;14.320;2022-08-30T18:51:01;22.00;99.90
11320;DHT22;5715;48.234;14.320;2022-08-30T18:53:48;21.90;99.90
11320;DHT22;5715;48.234;14.320;2022-08-30T18:56:36;21.90;99.90
11320;DHT22;5715;48.234;14.320;2022-08-30T18:59:25;21.90;99.90
11320;DHT22;5715;48.234;14.320;2022-08-30T19:02:22;21.80;99.90